Time;durP1;ratioP1;P1;durP2;ratioP2;P2;SDS_P1;SDS_P2;PMS_P1;PMS_P2;Temp;Humidity;BMP_temperature;BMP_pressure;BME280_temperature;BME280_humidity;BME280_pressure;Samples;Min_cycle;Max_cycle;Signal;HPM_P1;HPM_P2
2022/05/18 04:33:22;;;;;;;;;1.75;1.75;;;;;20.51;59.04;101652.00;5078668;28;45171;-60
2022/05/18 04:35:50;;;;;;;;;4.00;1.50;;;;;20.52;58.76;101651.03;5081427;28;45385;-59
2022/05/18 04:38:16;;;;;;;;;4.25;1.00;;;;;20.57;58.69;101659.75;5080789;28;45903;-60
2022/05/18 04:40:42;;;;;;;;;1.50;0.25;;;;;20.60;58.56;101656.78;5080112;28;45813;-59
2022/05/18 04:43:07;;;;;;;;;1.00;1.00;;;;;20.70;57.92;101659.72;5080754;28;45244;-60
2022/05/18 04:45:33;;;;;;;;;0.50;0.50;;;;;20.77;57.75;101666.44;5080957;28;45337;-58
2022/05/18 04:47:58;;;;;;;;;2.00;2.00;;;;;20.74;57.57;101678.47;5080851;28;45392;-60
2022/05/18 04:50:24;;;;;;;;;2.75;1.50;;;;;20.76;57.34;101672.88;5080838;28;45328;-59
2022/05/18 04:52:49;;;;;;;;;1.00;1.00;;;;;20.78;57.29;101679.09;5080826;28;45256;-58
2022/05/18 04:55:15;;;;;;;;;1.00;1.00;;;;;20.76;57.43;101679.19;5080975;28;45696;-59
2022/05/18 04:57:41;;;;;;;;;1.00;0.75;;;;;20.68;57.33;101680.75;5080633;28;45786;-59
2022/05/18 05:00:12;;;;;;;;;1.75;1.75;;;;;20.69;57.41;101687.94;5080409;28;46053;-59
2022/05/18 05:02:39;;;;;;;;;2.00;2.00;;;;;20.51;57.61;101667.50;5080554;28;45415;-59
2022/05/18 05:05:06;;;;;;;;;1.00;1.00;;;;;20.56;57.35;101684.38;5080248;28;45327;-61
2022/05/18 05:07:31;;;;;;;;;1.50;1.50;;;;;20.51;57.51;101679.25;5080207;28;45336;-59
2022/05/18 05:09:56;;;;;;;;;1.00;1.00;;;;;20.41;57.88;101686.38;5080381;28;46205;-59
2022/05/18 05:12:22;;;;;;;;;1.00;1.00;;;;;20.40;57.81;101690.06;5079244;28;45264;-58
2022/05/18 05:14:47;;;;;;;;;1.00;1.00;;;;;20.47;57.64;101693.22;5080461;28;45852;-60
2022/05/18 05:17:12;;;;;;;;;1.00;1.00;;;;;20.56;57.60;101695.28;5041803;28;45378;-59
2022/05/18 05:19:38;;;;;;;;;1.50;1.50;;;;;20.59;57.30;101703.22;5070997;28;45434;-59
2022/05/18 05:22:04;;;;;;;;;0.50;0.50;;;;;20.65;57.08;101705.50;5080336;28;45362;-60
2022/05/18 05:24:29;;;;;;;;;1.00;1.00;;;;;20.75;56.50;101709.31;5080733;28;45469;-59
2022/05/18 05:26:55;;;;;;;;;1.00;1.00;;;;;20.75;56.20;101709.31;5079885;28;45358;-58
2022/05/18 05:29:20;;;;;;;;;0.75;0.00;;;;;20.69;56.24;101702.44;5079956;28;45371;-59
2022/05/18 05:31:47;;;;;;;;;1.50;1.50;;;;;20.90;56.00;101719.09;5079699;28;45383;-60
2022/05/18 05:34:13;;;;;;;;;2.25;2.00;;;;;20.99;55.64;101728.44;5080269;28;45273;-59
2022/05/18 05:36:39;;;;;;;;;1.00;1.00;;;;;21.03;55.68;101725.38;5079966;28;45320;-59
2022/05/18 05:39:04;;;;;;;;;1.00;1.00;;;;;21.14;55.37;101728.16;5079950;28;46189;-57
2022/05/18 05:41:29;;;;;;;;;1.50;1.00;;;;;21.22;55.13;101726.75;5079862;28;45257;-59
2022/05/18 05:43:56;;;;;;;;;4.00;2.00;;;;;21.21;54.79;101725.88;5080225;28;45254;-59
2022/05/18 05:46:22;;;;;;;;;1.25;1.25;;;;;21.23;54.83;101718.47;5079626;28;45382;-59
2022/05/18 05:48:47;;;;;;;;;1.75;1.00;;;;;21.38;54.75;101730.94;5079906;28;45201;-59
2022/05/18 05:51:15;;;;;;;;;0.25;0.25;;;;;21.49;54.31;101741.06;5079685;28;45414;-60
2022/05/18 05:53:44;;;;;;;;;1.25;1.25;;;;;21.58;53.78;101743.09;5078721;28;45418;-59
2022/05/18 05:56:12;;;;;;;;;1.00;1.00;;;;;21.61;54.00;101744.69;5079417;28;45240;-62
2022/05/18 05:58:39;;;;;;;;;3.00;1.25;;;;;21.65;53.65;101746.22;5079713;28;46285;-59
2022/05/18 06:01:07;;;;;;;;;0.75;0.75;;;;;21.68;53.31;101744.13;5077729;28;45411;-60
2022/05/18 06:03:33;;;;;;;;;2.75;1.75;;;;;21.74;53.00;101738.19;5079493;28;45320;-60
2022/05/18 06:06:00;;;;;;;;;1.00;1.00;;;;;21.81;52.78;101739.44;5079395;28;45283;-59
2022/05/18 06:08:26;;;;;;;;;0.75;0.75;;;;;21.88;52.67;101739.84;5078725;28;45288;-60
2022/05/18 06:10:52;;;;;;;;;0.75;0.75;;;;;21.91;52.53;101742.34;5079267;28;45386;-59
2022/05/18 06:13:18;;;;;;;;;1.00;1.00;;;;;22.01;52.53;101751.59;5079637;28;45336;-59
2022/05/18 06:15:43;;;;;;;;;1.00;1.00;;;;;22.09;52.46;101751.88;5073767;28;45419;-59
2022/05/18 06:18:09;;;;;;;;;0.00;0.00;;;;;22.13;51.90;101749.75;5058390;28;45365;-60
2022/05/18 06:20:34;;;;;;;;;1.00;1.00;;;;;22.17;51.69;101751.28;5063918;28;45427;-58
2022/05/18 06:23:04;;;;;;;;;0.25;0.25;;;;;22.22;51.29;101749.03;5078018;28;45370;-57
2022/05/18 06:25:29;;;;;;;;;0.75;0.75;;;;;22.29;51.32;101753.00;5076842;28;45410;-55
2022/05/18 06:27:55;;;;;;;;;1.00;1.00;;;;;22.32;51.30;101750.06;5077666;28;45256;-58
2022/05/18 06:30:21;;;;;;;;;1.50;1.50;;;;;22.38;50.76;101748.69;5075695;28;45286;-56
2022/05/18 06:32:46;;;;;;;;;1.75;1.75;;;;;22.39;51.45;101750.44;5075037;28;45264;-57
2022/05/18 06:35:12;;;;;;;;;2.50;2.00;;;;;22.43;51.15;101747.34;5077250;28;45294;-58
2022/05/18 06:37:37;;;;;;;;;2.75;1.75;;;;;22.21;51.06;101704.44;5076680;28;46150;-58
2022/05/18 06:40:04;;;;;;;;;3.50;2.00;;;;;22.53;50.98;101756.56;5075829;28;45489;-57
2022/05/18 06:42:30;;;;;;;;;3.00;3.00;;;;;22.53;50.87;101745.63;5077646;28;45315;-58
2022/05/18 06:44:55;;;;;;;;;3.75;3.00;;;;;22.60;50.57;101746.00;5073437;28;45576;-56
2022/05/18 06:47:20;;;;;;;;;2.00;2.00;;;;;22.56;50.20;101736.28;5077420;28;46041;-58
2022/05/18 06:49:47;;;;;;;;;2.00;2.00;;;;;22.51;50.31;101733.06;5076616;28;45517;-57
2022/05/18 06:52:12;;;;;;;;;1.00;1.00;;;;;22.62;50.36;101750.34;5074261;28;45560;-58
2022/05/18 06:54:38;;;;;;;;;2.00;2.00;;;;;22.62;49.76;101746.75;5072100;28;45766;-58
2022/05/18 06:57:04;;;;;;;;;1.00;1.00;;;;;22.69;49.97;101749.84;5071112;28;45547;-57
2022/05/18 06:59:30;;;;;;;;;0.50;0.50;;;;;22.70;49.55;101743.38;5073952;28;45373;-58
2022/05/18 07:01:55;;;;;;;;;2.00;2.00;;;;;22.73;49.52;101740.38;5077479;28;45714;-58
2022/05/18 07:04:21;;;;;;;;;3.00;1.00;;;;;22.78;49.55;101738.19;5075994;28;45655;-58
2022/05/18 07:06:47;;;;;;;;;1.50;1.50;;;;;22.78;49.54;101741.81;5075793;28;46405;-58
2022/05/18 07:09:19;;;;;;;;;3.00;3.00;;;;;22.81;49.53;101737.94;5074666;28;45791;-59
2022/05/18 07:11:49;;;;;;;;;6.00;1.25;;;;;22.83;49.04;101734.09;5066380;28;45249;-58
2022/05/18 07:14:19;;;;;;;;;4.25;3.50;;;;;22.89;49.49;101746.38;5071462;28;45439;-59
2022/05/18 07:16:45;;;;;;;;;2.50;2.50;;;;;22.92;49.19;101738.81;5044389;28;45383;-57
2022/05/18 07:19:12;;;;;;;;;3.00;2.25;;;;;22.96;48.83;101742.16;5059046;28;45282;-59
2022/05/18 07:21:38;;;;;;;;;3.50;2.00;;;;;22.98;49.08;101735.56;5058410;28;45294;-58
2022/05/18 07:24:03;;;;;;;;;3.00;3.00;;;;;23.00;49.12;101744.50;5063923;28;45530;-59
2022/05/18 07:26:29;;;;;;;;;1.00;1.00;;;;;22.98;48.82;101724.63;5077268;28;45333;-59
2022/05/18 07:28:55;;;;;;;;;1.75;1.75;;;;;23.09;49.00;101737.41;5080819;28;45413;-59
2022/05/18 07:31:21;;;;;;;;;1.75;1.00;;;;;23.13;48.96;101751.72;5081738;28;45399;-59
2022/05/18 07:33:47;;;;;;;;;3.00;2.00;;;;;23.18;48.88;101738.53;5073862;28;45459;-59
2022/05/18 07:36:14;;;;;;;;;1.50;1.50;;;;;23.21;48.54;101741.88;5061429;28;45483;-59
2022/05/18 07:38:40;;;;;;;;;0.50;0.50;;;;;23.20;48.12;101734.66;5065823;28;45453;-60
2022/05/18 07:41:10;;;;;;;;;2.50;1.75;;;;;23.24;48.49;101741.59;5081144;28;45427;-59
2022/05/18 07:43:37;;;;;;;;;2.00;2.00;;;;;23.26;48.84;101744.22;5081677;28;45506;-59
2022/05/18 07:46:03;;;;;;;;;1.00;1.00;;;;;23.32;48.88;101744.56;5080448;28;45325;-59
2022/05/18 07:48:29;;;;;;;;;1.00;1.00;;;;;23.39;49.04;101747.69;5081660;28;45427;-59
2022/05/18 07:50:56;;;;;;;;;2.00;2.00;;;;;23.42;48.96;101741.94;5080752;28;45271;-59
2022/05/18 07:53:21;;;;;;;;;2.25;2.25;;;;;23.47;48.10;101742.44;5080584;28;45443;-60
2022/05/18 07:55:47;;;;;;;;;1.00;1.00;;;;;23.36;47.99;101721.44;5081063;28;46993;-59
2022/05/18 07:58:15;;;;;;;;;2.25;2.25;;;;;23.51;48.10;101741.19;5081185;28;45335;-59
2022/05/18 08:00:40;;;;;;;;;2.25;2.25;;;;;23.58;48.11;101739.66;5081282;28;45440;-59
2022/05/18 08:03:07;;;;;;;;;4.00;2.00;;;;;23.62;48.15;101746.63;5079415;28;46809;-59
2022/05/18 08:05:33;;;;;;;;;3.75;2.00;;;;;23.67;48.12;101744.38;5073458;28;45691;-59
2022/05/18 08:08:04;;;;;;;;;1.25;1.25;;;;;23.74;47.67;101741.97;5070691;28;45416;-59
2022/05/18 08:15:57;;;;;;;;;0.50;0.50;;;;;23.83;48.03;101732.97;5066374;28;45785;-59
2022/05/18 08:18:23;;;;;;;;;2.00;1.00;;;;;23.93;47.79;101735.78;5060895;28;45290;-58
2022/05/18 08:20:49;;;;;;;;;1.50;1.50;;;;;23.93;47.50;101733.03;5061179;28;45421;-59
2022/05/18 08:23:15;;;;;;;;;1.75;0.50;;;;;23.97;47.60;101727.19;5060882;28;45323;-60
2022/05/18 08:25:43;;;;;;;;;2.25;2.25;;;;;24.03;47.61;101731.25;5073948;28;45499;-59
2022/05/18 08:28:09;;;;;;;;;0.00;0.00;;;;;24.03;47.57;101732.13;5057868;28;45302;-59
2022/05/18 08:30:35;;;;;;;;;1.00;1.00;;;;;24.13;47.35;101726.72;5072402;28;45492;-59
2022/05/18 08:33:02;;;;;;;;;2.00;2.00;;;;;24.17;47.30;101730.91;5071666;28;46105;-59
2022/05/18 08:35:29;;;;;;;;;2.75;2.75;;;;;24.13;47.17;101722.09;5079377;28;45492;-59
2022/05/18 08:37:56;;;;;;;;;3.00;1.75;;;;;24.18;47.41;101723.56;5080596;28;45326;-59
2022/05/18 08:40:45;;;;;;;;;2.00;2.00;;;;;24.21;47.62;101723.34;5079889;28;45443;-59
2022/05/18 08:43:20;;;;;;;;;1.25;1.25;;;;;24.19;47.46;101717.94;5080135;28;46061;-59
2022/05/18 08:45:47;;;;;;;;;2.50;2.50;;;;;24.26;47.39;101724.66;5080373;28;45249;-59
2022/05/18 08:48:32;;;;;;;;;1.75;1.75;;;;;24.29;47.61;101729.00;5080246;28;45267;-58
2022/05/18 08:51:06;;;;;;;;;3.00;2.00;;;;;24.34;47.51;101722.09;5079741;28;45237;-59
2022/05/18 08:54:00;;;;;;;;;4.00;3.00;;;;;24.33;47.30;101706.66;5080480;28;45362;-59
2022/05/18 08:56:31;;;;;;;;;0.75;0.75;;;;;24.41;47.48;101717.81;5079649;28;46364;-59
2022/05/18 08:58:58;;;;;;;;;1.00;1.00;;;;;24.42;47.73;101707.72;5080018;28;45393;-58
2022/05/18 09:01:35;;;;;;;;;1.50;1.50;;;;;24.51;47.65;101721.47;5080120;28;45427;-60
2022/05/18 09:04:16;;;;;;;;;1.75;1.75;;;;;24.58;47.45;101718.22;5080345;28;46091;-58
2022/05/18 09:06:53;;;;;;;;;3.75;2.75;;;;;24.56;46.81;101710.13;5079980;28;46194;-59
2022/05/18 09:12:27;;;;;;;;;4.00;2.50;;;;;24.54;47.34;101712.13;5080156;28;45285;-60
2022/05/18 09:14:54;;;;;;;;;4.00;2.50;;;;;24.57;47.85;101716.47;5079983;28;45336;-57
2022/05/18 09:18:04;;;;;;;;;2.75;2.00;;;;;24.52;47.43;101712.25;5061203;28;46358;-59
2022/05/18 09:20:40;;;;;;;;;4.00;3.25;;;;;24.51;47.48;101706.91;5043775;28;46287;-59
2022/05/18 09:23:43;;;;;;;;;5.00;3.50;;;;;24.51;47.79;101710.50;5080213;28;45178;-59
2022/05/18 09:26:14;;;;;;;;;3.75;3.75;;;;;24.54;47.74;101708.50;5080026;28;45279;-59
2022/05/18 09:28:46;;;;;;;;;2.25;2.25;;;;;24.57;47.77;101714.59;5079708;28;46230;-58
2022/05/18 09:31:36;;;;;;;;;2.50;2.50;;;;;24.59;48.29;101703.47;5079642;28;45155;-58
2022/05/18 09:34:22;;;;;;;;;5.00;3.00;;;;;24.58;48.22;101693.53;5079902;28;45400;-59
2022/05/18 09:37:08;;;;;;;;;4.00;3.00;;;;;24.67;48.20;101695.44;5079666;28;45289;-59
2022/05/18 09:39:40;;;;;;;;;4.75;1.75;;;;;24.74;48.26;101702.13;5079485;28;46321;-59
2022/05/18 09:42:11;;;;;;;;;5.00;4.25;;;;;24.69;47.38;101688.81;5079919;28;45415;-58
2022/05/18 09:44:43;;;;;;;;;3.75;2.25;;;;;24.67;47.53;101689.97;5079626;28;45275;-59
2022/05/18 09:47:12;;;;;;;;;4.00;2.75;;;;;24.76;47.76;101695.47;5079915;28;45355;-59
2022/05/18 09:49:43;;;;;;;;;1.75;1.75;;;;;24.82;47.77;101700.41;5079293;28;46506;-59
2022/05/18 09:52:09;;;;;;;;;6.00;5.00;;;;;24.73;47.36;101664.72;5079304;28;45474;-59
2022/05/18 09:54:36;;;;;;;;;4.50;3.00;;;;;24.92;47.39;101696.88;5061201;28;45531;-59
2022/05/18 09:57:11;;;;;;;;;1.25;0.00;;;;;24.89;47.27;101685.13;5079196;28;45483;-59
2022/05/18 09:59:45;;;;;;;;;3.25;2.00;;;;;24.99;47.52;101685.19;5059013;28;46442;-59
2022/05/18 10:07:58;;;;;;;;;2.00;2.00;;;;;25.08;46.99;101665.13;5069665;28;45388;-59
2022/05/18 10:10:38;;;;;;;;;4.50;4.50;;;;;25.20;47.04;101671.34;5078814;28;46125;-59
2022/05/18 10:13:10;;;;;;;;;3.75;2.75;;;;;25.27;46.99;101670.63;5079096;28;45961;-58
2022/05/18 10:15:38;;;;;;;;;4.25;4.25;;;;;25.34;46.55;101673.69;5074788;28;45340;-58
2022/05/18 10:18:34;;;;;;;;;3.25;3.25;;;;;25.39;46.69;101670.50;5057939;28;45332;-59
2022/05/18 10:21:16;;;;;;;;;3.25;3.25;;;;;25.41;46.47;101661.13;5067185;28;46163;-59
2022/05/18 10:23:50;;;;;;;;;4.75;3.75;;;;;25.48;46.27;101658.66;5078915;28;45324;-58
2022/05/18 10:26:30;;;;;;;;;2.50;2.50;;;;;25.49;45.70;101646.66;5079115;28;45344;-59
2022/05/18 10:29:06;;;;;;;;;4.00;3.25;;;;;25.55;45.47;101648.81;5065219;28;45486;-58
2022/05/18 10:31:33;;;;;;;;;3.25;3.25;;;;;25.58;45.73;101648.53;5058575;28;46665;-58
2022/05/18 10:34:32;;;;;;;;;2.00;2.00;;;;;25.58;45.23;101660.41;5079140;28;45438;-58
2022/05/18 10:37:00;;;;;;;;;2.25;2.25;;;;;25.57;45.12;101635.81;5049796;28;45563;-58
2022/05/18 10:39:40;;;;;;;;;2.50;2.00;;;;;25.67;45.57;101639.47;5078904;28;46078;-58
2022/05/18 10:42:27;;;;;;;;;4.50;3.00;;;;;25.70;45.38;101633.66;5078931;28;45507;-58
2022/05/18 10:44:55;;;;;;;;;3.25;2.00;;;;;25.73;45.68;101630.63;5078562;28;45422;-58
2022/05/18 10:47:36;;;;;;;;;2.00;2.00;;;;;25.74;45.75;101596.66;5079155;28;45280;-57
2022/05/18 10:50:27;;;;;;;;;3.00;3.00;;;;;25.89;44.79;101613.53;5079111;28;45359;-59
2022/05/18 10:52:58;;;;;;;;;5.00;3.75;;;;;25.95;44.69;101613.78;5078538;28;46191;-59
2022/05/18 10:55:28;;;;;;;;;3.25;3.25;;;;;26.05;45.00;101619.28;5077983;28;45364;-58
2022/05/18 10:58:01;;;;;;;;;3.50;2.25;;;;;26.15;44.56;101616.50;5078755;28;45339;-58
2022/05/18 11:00:40;;;;;;;;;4.00;3.00;;;;;26.24;44.68;101616.47;5078562;28;45450;-58
2022/05/18 11:03:18;;;;;;;;;4.00;4.00;;;;;26.29;42.97;101602.28;5079758;28;45634;-59
2022/05/18 11:05:49;;;;;;;;;4.75;2.50;;;;;26.34;43.18;101606.34;5082373;28;45465;-59
2022/05/18 11:08:19;;;;;;;;;5.25;3.00;;;;;26.41;43.25;101605.72;5082435;28;45290;-58
2022/05/18 11:11:08;;;;;;;;;3.00;3.00;;;;;26.49;42.46;101609.44;5082123;28;45474;-58
2022/05/18 11:13:46;;;;;;;;;3.75;3.75;;;;;26.55;42.04;101608.81;5070890;28;47174;-59
2022/05/18 11:16:17;;;;;;;;;4.50;2.25;;;;;26.65;41.87;101606.00;5072853;28;45293;-59
2022/05/18 11:19:05;;;;;;;;;3.00;3.00;;;;;26.74;41.35;101610.59;5061651;28;45309;-59
2022/05/18 11:22:21;;;;;;;;;4.25;2.00;;;;;26.89;40.33;101611.78;5061619;28;45277;-59
2022/05/18 11:24:57;;;;;;;;;1.50;1.50;;;;;27.01;39.78;101604.22;5069663;28;45526;-58
2022/05/18 11:27:48;;;;;;;;;2.75;2.00;;;;;27.16;38.64;101604.53;5081978;28;45331;-58
2022/05/18 11:30:24;;;;;;;;;1.50;1.50;;;;;27.22;39.28;101607.53;5081831;28;45624;-54
2022/05/18 11:33:14;;;;;;;;;3.00;3.00;;;;;27.29;40.27;101602.28;5081689;28;45564;-57
2022/05/18 11:36:19;;;;;;;;;3.25;2.25;;;;;27.31;39.80;101592.81;5081822;28;45403;-56
2022/05/18 11:39:20;;;;;;;;;2.75;2.75;;;;;27.34;40.20;101597.16;5080727;28;45438;-55
2022/05/18 11:42:05;;;;;;;;;3.50;2.00;;;;;27.33;39.56;101588.03;5081677;28;45456;-56
2022/05/18 11:44:52;;;;;;;;;3.25;1.50;;;;;27.40;39.39;101583.59;5081459;28;45364;-52
2022/05/18 11:47:26;;;;;;;;;3.00;3.00;;;;;27.44;38.95;101579.53;5081656;28;45340;-56
2022/05/18 11:50:02;;;;;;;;;2.50;2.50;;;;;27.49;38.18;101582.66;5081708;28;45289;-55
2022/05/18 11:52:56;;;;;;;;;2.50;2.50;;;;;27.55;37.96;101567.41;5080807;28;45336;-56
2022/05/18 11:55:45;;;;;;;;;2.00;2.00;;;;;27.61;38.19;101582.44;5067459;28;45883;-58
2022/05/18 11:58:26;;;;;;;;;1.50;1.50;;;;;27.66;38.28;101569.91;5063017;28;45700;-56
2022/05/18 12:01:02;;;;;;;;;1.50;1.50;;;;;27.62;37.49;101554.72;5067180;28;45511;-57
2022/05/18 12:04:06;;;;;;;;;1.75;1.75;;;;;27.79;37.66;101569.47;5081817;28;45217;-57
2022/05/18 12:06:46;;;;;;;;;2.00;2.00;;;;;27.81;37.06;101568.31;5081203;28;45384;-58
2022/05/18 12:09:35;;;;;;;;;5.50;2.75;;;;;27.77;36.09;101557.75;5081188;28;46309;-57
2022/05/18 12:12:09;;;;;;;;;1.00;1.00;;;;;27.83;37.02;101565.34;5080323;28;45285;-55
2022/05/18 12:15:06;;;;;;;;;3.50;2.00;;;;;27.77;37.32;101535.69;5081018;28;45376;-57
2022/05/18 12:17:58;;;;;;;;;5.25;2.00;;;;;27.96;35.73;101554.78;5047441;28;45273;-57
2022/05/18 12:20:30;;;;;;;;;2.00;2.00;;;;;27.98;36.66;101552.72;5070011;28;47085;-57
2022/05/18 12:23:00;;;;;;;;;3.00;2.00;;;;;28.09;36.59;101554.31;5080893;28;45293;-54
2022/05/18 12:25:28;;;;;;;;;3.25;2.00;;;;;28.16;35.60;101547.13;5059167;28;45375;-56
2022/05/18 12:27:57;;;;;;;;;2.00;1.00;;;;;28.22;36.20;101543.75;5071135;28;45396;-57
2022/05/18 12:30:25;;;;;;;;;2.00;2.00;;;;;28.30;36.57;101537.38;5080571;28;45413;-55
2022/05/18 12:32:53;;;;;;;;;2.50;2.50;;;;;28.39;36.62;101544.66;5080850;28;45233;-56
2022/05/18 12:35:23;;;;;;;;;2.50;2.00;;;;;28.46;36.17;101540.22;5080910;28;45437;-56
2022/05/18 12:37:48;;;;;;;;;2.00;2.00;;;;;28.56;35.23;101543.69;5080484;28;45347;-57
2022/05/18 12:40:14;;;;;;;;;2.50;2.50;;;;;28.59;35.01;101541.44;5072826;28;45446;-56
2022/05/18 12:42:47;;;;;;;;;3.00;2.00;;;;;28.66;35.21;101540.78;5072770;28;45774;-56
2022/05/18 12:45:21;;;;;;;;;3.50;2.00;;;;;28.63;34.77;101527.31;5068700;28;45490;-56
2022/05/18 12:47:52;;;;;;;;;2.00;2.00;;;;;28.69;34.67;101538.53;5079874;28;45453;-56
2022/05/18 12:50:19;;;;;;;;;1.25;1.25;;;;;28.77;35.48;101530.31;5080562;28;46996;-56
2022/05/18 12:52:55;;;;;;;;;2.00;2.00;;;;;28.85;34.89;101526.69;5067614;28;45478;-56
2022/05/18 12:55:32;;;;;;;;;2.25;1.75;;;;;28.96;35.33;101520.84;5060477;28;45351;-57
2022/05/18 12:58:06;;;;;;;;;2.00;2.00;;;;;29.08;34.85;101524.16;5059939;28;45402;-55
2022/05/18 13:00:31;;;;;;;;;0.75;0.75;;;;;29.11;32.67;101518.28;5059758;28;46539;-54
2022/05/18 13:03:08;;;;;;;;;2.00;1.50;;;;;29.21;33.53;101511.53;5059979;28;45418;-56
2022/05/18 13:05:39;;;;;;;;;4.75;1.75;;;;;29.27;32.86;101523.78;5060326;28;45347;-58
2022/05/18 13:08:20;;;;;;;;;0.00;0.00;;;;;29.29;32.94;101503.25;5059978;28;45487;-56
2022/05/18 13:11:10;;;;;;;;;2.00;2.00;;;;;29.27;33.10;101499.78;5077221;28;47265;-55
2022/05/18 13:14:00;;;;;;;;;2.00;2.00;;;;;29.40;33.36;101506.75;5079837;28;45521;-56
2022/05/18 13:16:55;;;;;;;;;3.50;2.25;;;;;29.45;33.78;101490.50;5068602;28;45471;-57
2022/05/18 13:19:25;;;;;;;;;2.00;2.00;;;;;29.46;33.25;101501.38;4989914;28;45476;-57
2022/05/18 13:21:59;;;;;;;;;3.50;3.50;;;;;29.47;33.99;101499.47;5080050;28;46639;-58
2022/05/18 13:24:33;;;;;;;;;2.75;2.75;;;;;29.45;34.01;101488.59;5080223;28;45279;-57
2022/05/18 13:27:07;;;;;;;;;3.50;2.50;;;;;29.53;34.21;101496.00;5079232;28;45312;-56
2022/05/18 13:29:35;;;;;;;;;1.00;1.00;;;;;29.58;33.40;101479.78;5079430;28;45269;-57
2022/05/18 13:32:05;;;;;;;;;3.00;3.00;;;;;29.71;32.95;101480.94;5079197;27;45406;-58
2022/05/18 13:35:06;;;;;;;;;2.00;2.00;;;;;29.81;33.80;101482.63;5079925;27;45485;-57
2022/05/18 13:37:31;;;;;;;;;3.25;2.25;;;;;29.90;32.97;101481.56;5079940;27;45333;-57
2022/05/18 13:39:57;;;;;;;;;1.00;1.00;;;;;29.96;32.44;101476.22;5079673;28;45315;-58
2022/05/18 13:42:25;;;;;;;;;2.75;1.50;;;;;29.99;32.27;101470.34;5079545;27;46192;-56
2022/05/18 13:45:02;;;;;;;;;3.00;3.00;;;;;29.95;31.71;101468.97;5079571;27;45316;-57
2022/05/18 13:47:34;;;;;;;;;2.00;2.00;;;;;30.02;32.45;101469.13;5079653;27;45378;-57
2022/05/18 13:50:07;;;;;;;;;3.00;2.00;;;;;30.03;32.83;101443.16;5079922;27;45725;-56
2022/05/18 13:52:41;;;;;;;;;3.25;1.75;;;;;30.25;32.02;101458.97;5079605;27;45361;-57
2022/05/18 13:55:09;;;;;;;;;3.50;2.25;;;;;30.34;31.92;101459.78;5078926;27;45395;-57
2022/05/18 13:57:45;;;;;;;;;3.00;3.00;;;;;30.35;31.98;101450.47;5079559;27;45508;-56
2022/05/18 14:00:28;;;;;;;;;4.50;2.00;;;;;30.39;32.88;101447.13;5079463;27;45308;-57
2022/05/18 14:02:56;;;;;;;;;1.25;1.25;;;;;30.48;32.21;101437.72;5079015;27;45678;-56
2022/05/18 14:05:22;;;;;;;;;2.25;1.50;;;;;30.54;31.03;101438.09;5079468;27;45335;-57
2022/05/18 14:07:49;;;;;;;;;2.00;2.00;;;;;30.61;30.80;101426.09;5079432;27;45465;-57
2022/05/18 14:10:19;;;;;;;;;1.00;1.00;;;;;30.64;31.18;101422.06;5079596;27;45454;-56
2022/05/18 14:12:46;;;;;;;;;1.00;1.00;;;;;30.72;30.96;101431.19;5079290;27;45339;-58
2022/05/18 14:15:13;;;;;;;;;1.00;1.00;;;;;30.73;30.76;101434.81;5078879;27;45412;-57
2022/05/18 14:17:39;;;;;;;;;0.75;0.75;;;;;30.77;30.73;101417.66;5079632;27;45292;-57
2022/05/18 14:20:15;;;;;;;;;1.50;1.00;;;;;30.82;29.89;101409.66;5078332;27;45548;-56
2022/05/18 14:22:46;;;;;;;;;1.00;1.00;;;;;30.84;30.45;101404.78;5079147;27;46182;-58
2022/05/18 14:25:15;;;;;;;;;2.50;1.50;;;;;30.88;30.55;101391.41;5079294;27;45149;-57
2022/05/18 14:27:54;;;;;;;;;0.00;0.00;;;;;30.91;30.00;101395.72;5078781;27;45400;-57
2022/05/18 14:30:23;;;;;;;;;1.00;1.00;;;;;30.94;30.37;101389.81;5078847;27;45296;-57
2022/05/18 14:32:57;;;;;;;;;1.00;1.00;;;;;30.94;29.66;101393.47;5083777;27;45311;-58
2022/05/18 14:35:27;;;;;;;;;2.00;1.25;;;;;30.99;30.71;101392.88;5079369;27;45240;-57
2022/05/18 14:38:01;;;;;;;;;1.00;1.00;;;;;30.96;30.03;101388.59;5086565;27;45577;-57
2022/05/18 14:40:33;;;;;;;;;1.00;1.00;;;;;31.01;30.13;101390.78;5085963;27;45348;-57
2022/05/18 14:42:59;;;;;;;;;2.25;2.00;;;;;31.02;30.40;101374.00;5078307;28;45442;-57
2022/05/18 14:45:31;;;;;;;;;2.00;2.00;;;;;31.19;30.39;101386.66;5086248;27;45395;-58
2022/05/18 14:48:09;;;;;;;;;1.00;1.00;;;;;31.25;29.57;101378.63;5061809;28;45340;-58
2022/05/18 14:50:45;;;;;;;;;2.75;0.00;;;;;31.35;30.09;101376.44;5079153;28;45474;-59
2022/05/18 14:53:20;;;;;;;;;1.75;1.75;;;;;31.39;29.85;101378.63;5077592;28;45348;-57
2022/05/18 14:55:51;;;;;;;;;1.00;1.00;;;;;31.43;29.28;101376.34;5078969;28;45638;-57
2022/05/18 14:58:43;;;;;;;;;1.00;1.00;;;;;31.40;30.05;101360.09;5078986;28;45516;-56
2022/05/18 15:01:38;;;;;;;;;3.25;1.00;;;;;31.53;29.98;101369.47;5077471;28;45644;-58
2022/05/18 15:04:27;;;;;;;;;1.00;1.00;;;;;31.48;29.55;101358.09;5069878;28;46275;-58
2022/05/18 15:06:58;;;;;;;;;1.50;1.50;;;;;31.48;30.47;101357.22;5078968;28;45286;-57
2022/05/18 15:09:35;;;;;;;;;2.25;2.25;;;;;31.51;29.98;101357.72;5078513;28;45367;-56
2022/05/18 15:12:05;;;;;;;;;1.25;1.25;;;;;31.42;29.78;101358.84;5078751;28;45475;-58
2022/05/18 15:14:40;;;;;;;;;2.00;2.00;;;;;31.35;30.55;101355.13;5077351;28;46568;-57
2022/05/18 15:17:16;;;;;;;;;2.00;2.00;;;;;31.35;30.19;101352.38;5078611;28;45356;-58
2022/05/18 15:20:07;;;;;;;;;2.00;2.00;;;;;31.41;30.83;101350.72;5078982;28;45352;-58
2022/05/18 15:22:36;;;;;;;;;2.50;2.50;;;;;31.43;29.92;101356.94;5077826;28;45497;-57
2022/05/18 15:25:39;;;;;;;;;0.75;0.75;;;;;31.49;29.47;101351.50;5078311;28;46246;-58
2022/05/18 15:28:29;;;;;;;;;0.75;0.75;;;;;31.54;29.32;101345.38;4995903;28;45527;-58
2022/05/18 15:31:04;;;;;;;;;2.00;2.00;;;;;31.56;29.77;101327.47;4996399;28;45416;-57
2022/05/18 15:33:53;;;;;;;;;1.50;1.50;;;;;31.63;29.54;101324.84;5051761;28;45440;-58
2022/05/18 15:36:19;;;;;;;;;2.00;2.00;;;;;31.58;28.95;101328.16;5065411;28;46151;-58
2022/05/18 15:38:47;;;;;;;;;2.00;2.00;;;;;31.63;29.45;101332.31;5078575;28;45423;-58
2022/05/18 15:41:14;;;;;;;;;6.00;1.50;;;;;31.60;29.72;101327.97;5078413;28;45324;-59
2022/05/18 15:43:39;;;;;;;;;1.00;1.00;;;;;31.57;29.46;101325.56;5078019;28;45301;-58
2022/05/18 15:46:09;;;;;;;;;1.00;1.00;;;;;31.50;29.48;101324.63;5078130;28;45238;-58
2022/05/18 15:48:36;;;;;;;;;1.75;1.75;;;;;31.42;30.37;101319.19;5060505;28;45359;-57
2022/05/18 15:51:03;;;;;;;;;2.00;2.00;;;;;31.36;29.68;101317.19;5081581;28;45535;-58
2022/05/18 15:53:37;;;;;;;;;1.50;1.50;;;;;31.27;30.03;101308.13;5081915;28;45319;-58
2022/05/18 15:56:10;;;;;;;;;0.75;0.75;;;;;31.36;30.33;101314.44;5080680;28;45429;-59
2022/05/18 15:58:35;;;;;;;;;1.75;1.00;;;;;31.36;30.13;101308.88;5081002;28;45365;-57
2022/05/18 16:01:01;;;;;;;;;1.50;1.50;;;;;31.43;29.81;101315.38;5081429;28;45317;-58
2022/05/18 16:03:27;;;;;;;;;2.00;2.00;;;;;31.43;29.92;101313.47;5081835;28;45497;-56
2022/05/18 16:05:53;;;;;;;;;1.00;1.00;;;;;31.50;30.53;101306.09;5081563;28;46441;-57
2022/05/18 16:08:21;;;;;;;;;1.00;1.00;;;;;31.55;30.22;101308.31;5055225;28;45454;-59
2022/05/18 16:10:47;;;;;;;;;1.25;1.25;;;;;31.59;30.03;101310.47;5076540;28;45426;-57
2022/05/18 16:13:12;;;;;;;;;2.00;1.50;;;;;31.56;30.41;101315.53;5081345;28;45542;-58
2022/05/18 16:15:38;;;;;;;;;2.00;2.00;;;;;31.49;30.80;101312.69;5068766;28;47104;-58
2022/05/18 16:18:04;;;;;;;;;1.00;1.00;;;;;31.43;30.68;101312.59;5061266;28;45460;-58
2022/05/18 16:20:30;;;;;;;;;0.25;0.25;;;;;31.36;30.41;101306.97;5061242;28;45681;-57
2022/05/18 16:22:55;;;;;;;;;2.00;1.00;;;;;31.25;30.59;101309.34;5060169;28;45506;-58
2022/05/18 16:25:26;;;;;;;;;1.00;1.00;;;;;31.19;30.21;101303.53;5060605;28;46510;-57
2022/05/18 16:27:52;;;;;;;;;2.00;2.00;;;;;31.12;30.58;101302.59;5060751;28;45343;-58
2022/05/18 16:30:19;;;;;;;;;2.00;2.00;;;;;30.99;30.60;101293.19;5060481;28;45257;-57
2022/05/18 16:32:45;;;;;;;;;2.00;2.00;;;;;30.87;30.77;101292.81;5064499;28;45492;-57
2022/05/18 16:35:10;;;;;;;;;1.75;1.75;;;;;30.82;31.03;101296.13;5080573;27;45398;-57